Time;durP1;ratioP1;P1;durP2;ratioP2;P2;SDS_P1;SDS_P2;PMS_P1;PMS_P2;Temp;Humidity;BMP_temperature;BMP_pressure;BME280_temperature;BME280_humidity;BME280_pressure;Samples;Min_cycle;Max_cycle;Signal;HPM_P1;HPM_P2
2023/07/26 00:01:19;;;;;;;;;;;22.80;47.10;;;;;;1574161;74;764;-58
2023/07/26 00:03:21;;;;;;;;;;;22.70;47.00;;;;;;1581826;74;753;-58
2023/07/26 00:05:23;;;;;;;;;;;22.80;47.10;;;;;;1583465;73;724;-58
2023/07/26 00:07:25;;;;;;;;;;;22.70;47.10;;;;;;1568635;73;1938;-59
2023/07/26 00:09:27;;;;;;;;;;;22.70;47.10;;;;;;1562656;73;1149;-59
2023/07/26 00:11:29;;;;;;;;;;;22.70;47.20;;;;;;1568406;75;732;-59
2023/07/26 00:13:31;;;;;;;;;;;22.80;47.20;;;;;;1570795;73;728;-59
2023/07/26 00:15:33;;;;;;;;;;;22.70;47.20;;;;;;1567907;73;735;-59
2023/07/26 00:17:35;;;;;;;;;;;22.80;47.10;;;;;;1567095;73;724;-59
2023/07/26 00:19:37;;;;;;;;;;;22.70;47.10;;;;;;1569114;73;1187;-58
2023/07/26 00:21:39;;;;;;;;;;;22.80;47.10;;;;;;1568838;73;709;-58
2023/07/26 00:23:40;;;;;;;;;;;22.70;47.20;;;;;;1563325;73;753;-59
2023/07/26 00:25:42;;;;;;;;;;;22.80;47.10;;;;;;1568074;73;797;-58
2023/07/26 00:27:44;;;;;;;;;;;22.80;47.10;;;;;;1563797;73;1947;-58
2023/07/26 00:29:46;;;;;;;;;;;22.80;47.10;;;;;;1572799;73;1129;-56
2023/07/26 00:31:48;;;;;;;;;;;22.80;47.10;;;;;;1567780;73;782;-58
2023/07/26 00:33:50;;;;;;;;;;;22.70;47.10;;;;;;1562568;74;792;-57
2023/07/26 00:35:52;;;;;;;;;;;22.70;47.10;;;;;;1563607;73;710;-58
2023/07/26 00:37:54;;;;;;;;;;;22.70;47.10;;;;;;1578935;73;717;-57
2023/07/26 00:39:56;;;;;;;;;;;22.80;47.00;;;;;;1561945;73;1089;-57
2023/07/26 00:41:57;;;;;;;;;;;22.80;47.00;;;;;;1566596;73;695;-59
2023/07/26 00:43:59;;;;;;;;;;;22.80;47.10;;;;;;1560743;75;843;-58
2023/07/26 00:46:01;;;;;;;;;;;22.80;47.10;;;;;;1563619;75;750;-58
2023/07/26 00:48:03;;;;;;;;;;;22.70;47.10;;;;;;1565628;75;1946;-58
2023/07/26 00:50:06;;;;;;;;;;;22.70;47.10;;;;;;1570673;75;1131;-57
2023/07/26 00:52:08;;;;;;;;;;;22.70;47.10;;;;;;1564684;75;734;-59
2023/07/26 00:54:10;;;;;;;;;;;22.80;47.10;;;;;;1577971;75;749;-58
2023/07/26 00:56:12;;;;;;;;;;;22.70;47.10;;;;;;1570513;75;778;-59
2023/07/26 00:58:14;;;;;;;;;;;22.80;47.00;;;;;;1568039;73;590;-58
2023/07/26 01:00:18;;;;;;;;;;;22.70;47.00;;;;;;1572124;73;1132;-57
2023/07/26 01:02:19;;;;;;;;;;;22.80;46.80;;;;;;1561867;75;1496;-59
2023/07/26 01:04:21;;;;;;;;;;;22.80;46.80;;;;;;1572814;73;743;-58
2023/07/26 01:06:31;;;;;;;;;;;22.70;46.90;;;;;;1568376;75;731;-58
2023/07/26 01:08:34;;;;;;;;;;;22.70;46.90;;;;;;1560875;73;1929;-59
2023/07/26 01:10:41;;;;;;;;;;;22.70;46.90;;;;;;1580359;73;1173;-58
2023/07/26 01:12:47;;;;;;;;;;;22.70;47.00;;;;;;1588681;74;1881;-58
2023/07/26 01:14:51;;;;;;;;;;;22.70;46.90;;;;;;1564794;74;1796;-59
2023/07/26 01:16:53;;;;;;;;;;;22.70;46.80;;;;;;1559748;74;1172;-59
2023/07/26 01:18:54;;;;;;;;;;;22.70;46.80;;;;;;1588486;74;1166;-59
2023/07/26 01:20:56;;;;;;;;;;;22.70;46.80;;;;;;1561533;74;743;-59
2023/07/26 01:22:58;;;;;;;;;;;22.70;46.80;;;;;;1573932;74;710;-58
2023/07/26 01:25:00;;;;;;;;;;;22.70;46.80;;;;;;1556451;74;752;-59
2023/07/26 01:27:02;;;;;;;;;;;22.70;46.80;;;;;;1561216;73;795;-59
2023/07/26 01:29:04;;;;;;;;;;;22.60;46.80;;;;;;1574871;74;1914;-59
2023/07/26 01:31:06;;;;;;;;;;;22.60;46.80;;;;;;1557072;74;784;-60
2023/07/26 01:33:08;;;;;;;;;;;22.70;47.00;;;;;;1556057;74;651;-59
2023/07/26 01:35:10;;;;;;;;;;;22.70;47.00;;;;;;1561719;73;802;-59
2023/07/26 01:37:12;;;;;;;;;;;22.80;47.00;;;;;;1568280;74;808;-60
2023/07/26 01:39:14;;;;;;;;;;;22.70;47.00;;;;;;1565711;73;1106;-57
2023/07/26 01:41:16;;;;;;;;;;;22.70;46.90;;;;;;1561255;74;749;-58
2023/07/26 01:43:18;;;;;;;;;;;22.70;46.80;;;;;;1568590;74;1518;-58
2023/07/26 01:45:21;;;;;;;;;;;22.70;46.80;;;;;;1575930;74;746;-58
2023/07/26 01:47:22;;;;;;;;;;;22.60;46.80;;;;;;1554182;74;689;-55
2023/07/26 01:49:25;;;;;;;;;;;22.80;46.90;;;;;;1580208;74;1912;-59
2023/07/26 01:51:26;;;;;;;;;;;22.60;46.80;;;;;;1573602;73;803;-57
2023/07/26 01:53:28;;;;;;;;;;;22.60;46.80;;;;;;1570262;74;728;-57
2023/07/26 01:55:30;;;;;;;;;;;22.70;46.90;;;;;;1576425;73;783;-58
2023/07/26 01:57:32;;;;;;;;;;;22.60;46.70;;;;;;1564772;73;708;-55
2023/07/26 01:59:34;;;;;;;;;;;22.60;46.80;;;;;;1575082;74;1092;-55
2023/07/26 02:01:36;;;;;;;;;;;22.60;46.80;;;;;;1558933;74;724;-57
2023/07/26 02:03:38;;;;;;;;;;;22.70;46.90;;;;;;1563070;74;745;-57
2023/07/26 02:05:44;;;;;;;;;;;22.70;46.90;;;;;;1564371;73;792;-55
2023/07/26 02:07:46;;;;;;;;;;;22.70;47.00;;;;;;1577760;74;951;-56
2023/07/26 02:09:48;;;;;;;;;;;22.70;46.90;;;;;;1562014;73;1927;-56
2023/07/26 02:11:50;;;;;;;;;;;22.70;46.90;;;;;;1586911;73;697;-55
2023/07/26 02:13:52;;;;;;;;;;;22.60;46.90;;;;;;1555273;73;770;-56
2023/07/26 02:15:54;;;;;;;;;;;22.60;46.90;;;;;;1560147;74;796;-56
2023/07/26 02:17:56;;;;;;;;;;;22.60;46.80;;;;;;1553061;74;846;-54
2023/07/26 02:19:57;;;;;;;;;;;22.70;46.90;;;;;;1576384;73;1193;-55
2023/07/26 02:21:59;;;;;;;;;;;22.60;46.80;;;;;;1557174;74;732;-56
2023/07/26 02:24:01;;;;;;;;;;;22.70;46.90;;;;;;1563999;74;722;-56
2023/07/26 02:26:04;;;;;;;;;;;22.60;46.70;;;;;;1570350;73;790;-58
2023/07/26 02:28:05;;;;;;;;;;;22.60;46.70;;;;;;1574135;74;727;-56
2023/07/26 02:30:08;;;;;;;;;;;22.60;46.80;;;;;;1560066;73;1140;-56
2023/07/26 02:32:09;;;;;;;;;;;22.60;46.70;;;;;;1570966;74;765;-56
2023/07/26 02:34:11;;;;;;;;;;;22.70;46.80;;;;;;1571081;74;744;-58
2023/07/26 02:36:13;;;;;;;;;;;22.60;46.60;;;;;;1587807;74;684;-58
2023/07/26 02:38:15;;;;;;;;;;;22.60;46.60;;;;;;1567115;73;771;-57
2023/07/26 02:40:17;;;;;;;;;;;22.60;46.70;;;;;;1570055;73;1524;-56
2023/07/26 02:42:19;;;;;;;;;;;22.70;46.80;;;;;;1567906;73;752;-57
2023/07/26 02:44:21;;;;;;;;;;;22.60;46.60;;;;;;1566669;73;750;-57
2023/07/26 02:46:22;;;;;;;;;;;22.60;46.60;;;;;;1572275;74;654;-57
2023/07/26 02:48:24;;;;;;;;;;;22.60;46.70;;;;;;1560297;74;1941;-57
2023/07/26 02:50:26;;;;;;;;;;;22.60;46.70;;;;;;1570874;74;1120;-56
2023/07/26 02:52:28;;;;;;;;;;;22.60;46.70;;;;;;1562086;74;679;-57
2023/07/26 02:54:30;;;;;;;;;;;22.60;46.70;;;;;;1574485;74;771;-57
2023/07/26 02:56:32;;;;;;;;;;;22.60;46.70;;;;;;1573237;73;750;-57
2023/07/26 02:58:34;;;;;;;;;;;22.60;46.60;;;;;;1580320;74;768;-57
2023/07/26 03:00:36;;;;;;;;;;;22.60;46.60;;;;;;1567273;74;1143;-58
2023/07/26 03:02:37;;;;;;;;;;;22.60;46.70;;;;;;1577405;74;723;-57
2023/07/26 03:04:39;;;;;;;;;;;22.60;46.60;;;;;;1565262;73;796;-57
2023/07/26 03:06:41;;;;;;;;;;;22.60;46.50;;;;;;1571681;73;732;-57
2023/07/26 03:08:43;;;;;;;;;;;22.60;46.60;;;;;;1569923;74;1934;-58
2023/07/26 03:10:45;;;;;;;;;;;22.60;46.60;;;;;;1570639;73;1173;-56
2023/07/26 03:12:47;;;;;;;;;;;22.60;46.80;;;;;;1557745;74;696;-59
2023/07/26 03:14:49;;;;;;;;;;;22.60;46.70;;;;;;1560699;74;718;-58
2023/07/26 03:16:51;;;;;;;;;;;22.50;46.70;;;;;;1568630;74;732;-59
2023/07/26 03:18:53;;;;;;;;;;;22.60;46.80;;;;;;1558658;74;1145;-58
2023/07/26 03:20:54;;;;;;;;;;;22.60;46.80;;;;;;1571827;74;717;-59
2023/07/26 03:22:56;;;;;;;;;;;22.60;46.90;;;;;;1576165;74;725;-58
2023/07/26 03:24:58;;;;;;;;;;;22.60;46.90;;;;;;1556329;74;783;-59
2023/07/26 03:27:00;;;;;;;;;;;22.60;47.00;;;;;;1573172;74;753;-59
2023/07/26 03:29:02;;;;;;;;;;;22.60;47.00;;;;;;1565632;74;1930;-57
2023/07/26 03:31:04;;;;;;;;;;;22.60;47.00;;;;;;1570746;74;721;-59
2023/07/26 03:33:07;;;;;;;;;;;22.60;47.00;;;;;;1566026;74;779;-58
2023/07/26 03:35:09;;;;;;;;;;;22.60;47.00;;;;;;1561033;74;753;-58
2023/07/26 03:37:11;;;;;;;;;;;22.60;47.00;;;;;;1570829;74;1513;-59
2023/07/26 03:39:12;;;;;;;;;;;22.60;47.00;;;;;;1567080;74;1207;-59
2023/07/26 03:41:14;;;;;;;;;;;22.60;47.00;;;;;;1585346;74;756;-60
2023/07/26 03:43:16;;;;;;;;;;;22.60;47.00;;;;;;1578759;74;754;-59
2023/07/26 03:45:18;;;;;;;;;;;22.60;47.00;;;;;;1564831;74;737;-59
2023/07/26 03:47:20;;;;;;;;;;;22.60;47.00;;;;;;1563971;74;717;-58
2023/07/26 03:49:22;;;;;;;;;;;22.60;47.10;;;;;;1566545;74;1935;-57
2023/07/26 03:51:24;;;;;;;;;;;22.60;47.00;;;;;;1564307;74;1302;-58
2023/07/26 03:53:25;;;;;;;;;;;22.60;47.00;;;;;;1558341;74;613;-58
2023/07/26 03:55:27;;;;;;;;;;;22.60;47.00;;;;;;1563040;74;750;-58
2023/07/26 03:57:29;;;;;;;;;;;22.60;47.10;;;;;;1570341;74;631;-58
2023/07/26 03:59:31;;;;;;;;;;;22.50;47.10;;;;;;1567141;74;1133;-59
2023/07/26 04:01:33;;;;;;;;;;;22.60;47.10;;;;;;1562323;74;743;-58
2023/07/26 04:03:35;;;;;;;;;;;22.60;47.10;;;;;;1569953;74;743;-59
2023/07/26 04:05:37;;;;;;;;;;;22.60;47.10;;;;;;1561928;74;744;-59
2023/07/26 04:07:39;;;;;;;;;;;22.60;46.90;;;;;;1558426;74;713;-59
2023/07/26 04:09:41;;;;;;;;;;;22.50;46.90;;;;;;1563650;74;1928;-58
2023/07/26 04:11:43;;;;;;;;;;;22.50;46.90;;;;;;1576627;73;1048;-59
2023/07/26 04:13:45;;;;;;;;;;;22.60;46.90;;;;;;1572611;73;736;-59
2023/07/26 04:15:47;;;;;;;;;;;22.60;47.00;;;;;;1582368;73;726;-61
2023/07/26 04:17:49;;;;;;;;;;;22.50;46.90;;;;;;1586981;74;819;-59
2023/07/26 04:19:51;;;;;;;;;;;22.60;47.00;;;;;;1584079;74;1171;-59
2023/07/26 04:21:53;;;;;;;;;;;22.50;47.00;;;;;;1582825;74;716;-60
2023/07/26 04:23:55;;;;;;;;;;;22.50;46.90;;;;;;1573850;74;807;-59
2023/07/26 04:25:57;;;;;;;;;;;22.50;46.90;;;;;;1574517;73;777;-59
2023/07/26 04:27:58;;;;;;;;;;;22.50;46.90;;;;;;1576275;74;585;-58
2023/07/26 04:30:01;;;;;;;;;;;22.50;46.90;;;;;;1569687;73;1958;-60
2023/07/26 04:32:03;;;;;;;;;;;22.50;46.90;;;;;;1571819;74;1370;-58
2023/07/26 04:34:04;;;;;;;;;;;22.50;46.90;;;;;;1573974;74;752;-60
2023/07/26 04:36:06;;;;;;;;;;;22.50;46.90;;;;;;1570084;73;610;-60
2023/07/26 04:38:08;;;;;;;;;;;22.50;46.90;;;;;;1578614;74;777;-59
2023/07/26 04:40:10;;;;;;;;;;;22.50;47.00;;;;;;1573532;73;1183;-59
2023/07/26 04:42:12;;;;;;;;;;;22.40;46.90;;;;;;1579905;74;783;-58
2023/07/26 04:44:14;;;;;;;;;;;22.50;47.10;;;;;;1589379;74;732;-58
2023/07/26 04:46:16;;;;;;;;;;;22.40;46.80;;;;;;1574214;73;740;-57
2023/07/26 04:48:18;;;;;;;;;;;22.50;46.90;;;;;;1577086;74;684;-58
2023/07/26 04:50:20;;;;;;;;;;;22.40;46.80;;;;;;1574379;74;1945;-58
2023/07/26 04:52:22;;;;;;;;;;;22.40;47.00;;;;;;1585377;74;709;-57
2023/07/26 04:54:24;;;;;;;;;;;22.40;46.90;;;;;;1580104;74;727;-58
2023/07/26 04:56:26;;;;;;;;;;;22.40;46.80;;;;;;1583656;73;719;-58
2023/07/26 04:58:28;;;;;;;;;;;22.40;46.80;;;;;;1575399;74;782;-58
2023/07/26 05:00:30;;;;;;;;;;;22.40;46.80;;;;;;1581655;74;1141;-58
2023/07/26 05:02:32;;;;;;;;;;;22.40;46.70;;;;;;1587700;74;758;-59
2023/07/26 05:04:34;;;;;;;;;;;22.40;46.80;;;;;;1584563;74;761;-59
2023/07/26 05:06:36;;;;;;;;;;;22.40;46.90;;;;;;1580788;73;759;-57
2023/07/26 05:08:38;;;;;;;;;;;22.40;47.00;;;;;;1573265;73;777;-57
2023/07/26 05:10:40;;;;;;;;;;;22.40;47.00;;;;;;1586254;73;1953;-58
2023/07/26 05:12:42;;;;;;;;;;;22.40;47.00;;;;;;1569572;74;1078;-57
2023/07/26 05:14:44;;;;;;;;;;;22.40;46.90;;;;;;1573721;74;785;-58
2023/07/26 05:16:46;;;;;;;;;;;22.40;47.00;;;;;;1561043;74;754;-58
2023/07/26 05:18:48;;;;;;;;;;;22.40;47.00;;;;;;1570346;74;697;-58
2023/07/26 05:20:53;;;;;;;;;;;22.30;46.90;;;;;;1571488;74;714;-58
2023/07/26 05:22:55;;;;;;;;;;;22.30;47.00;;;;;;1564391;74;907;-58
2023/07/26 05:24:56;;;;;;;;;;;22.40;47.10;;;;;;1561028;73;630;-58
2023/07/26 05:26:59;;;;;;;;;;;22.40;47.10;;;;;;1567670;73;753;-57
2023/07/26 05:29:01;;;;;;;;;;;22.40;47.00;;;;;;1566460;74;1496;-57
2023/07/26 05:31:03;;;;;;;;;;;22.40;47.00;;;;;;1561245;73;1943;-57
2023/07/26 05:33:05;;;;;;;;;;;22.40;47.00;;;;;;1570608;74;591;-58
2023/07/26 05:35:07;;;;;;;;;;;22.40;47.10;;;;;;1564388;74;766;-58
2023/07/26 05:37:09;;;;;;;;;;;22.40;47.10;;;;;;1556712;74;671;-58
2023/07/26 05:39:12;;;;;;;;;;;22.30;47.00;;;;;;1560956;74;1137;-57
2023/07/26 05:41:14;;;;;;;;;;;22.30;46.80;;;;;;1567729;74;646;-58
2023/07/26 05:43:18;;;;;;;;;;;22.40;46.90;;;;;;1575740;74;746;-57
2023/07/26 05:45:20;;;;;;;;;;;22.30;46.80;;;;;;1567706;74;988;-59
2023/07/26 05:47:22;;;;;;;;;;;22.30;47.10;;;;;;1558331;73;790;-59
2023/07/26 05:49:23;;;;;;;;;;;22.30;46.90;;;;;;1561671;74;1948;-59
2023/07/26 05:51:25;;;;;;;;;;;22.40;46.90;;;;;;1536276;75;732;-58
2023/07/26 05:53:27;;;;;;;;;;;22.30;46.90;;;;;;1519636;77;695;-58
2023/07/26 05:55:29;;;;;;;;;;;22.30;46.90;;;;;;1526241;77;774;-56
2023/07/26 05:57:31;;;;;;;;;;;22.40;46.80;;;;;;1524471;77;684;-57
2023/07/26 05:59:33;;;;;;;;;;;22.30;46.80;;;;;;1519152;77;1166;-58
2023/07/26 06:01:35;;;;;;;;;;;22.30;46.80;;;;;;1522545;77;789;-58
2023/07/26 06:03:37;;;;;;;;;;;22.30;46.70;;;;;;1571655;73;734;-58
2023/07/26 06:05:40;;;;;;;;;;;22.20;46.10;;;;;;1576975;73;701;-58
2023/07/26 06:07:42;;;;;;;;;;;22.20;46.00;;;;;;1564960;73;692;-58
2023/07/26 06:09:44;;;;;;;;;;;22.30;46.30;;;;;;1568676;73;1946;-57
2023/07/26 06:11:45;;;;;;;;;;;22.20;46.00;;;;;;1574371;73;1128;-56
2023/07/26 06:13:47;;;;;;;;;;;22.30;46.20;;;;;;1576938;73;697;-57
2023/07/26 06:15:49;;;;;;;;;;;22.10;46.00;;;;;;1568349;73;724;-58
2023/07/26 06:17:51;;;;;;;;;;;22.20;45.90;;;;;;1590224;73;809;-57
2023/07/26 06:19:53;;;;;;;;;;;22.20;46.00;;;;;;1580933;73;1152;-57
2023/07/26 06:21:57;;;;;;;;;;;22.20;45.80;;;;;;1567729;73;668;-58
2023/07/26 06:23:59;;;;;;;;;;;22.10;45.80;;;;;;1571400;73;950;-58
2023/07/26 06:26:01;;;;;;;;;;;22.10;45.70;;;;;;1588450;73;1624;-59
2023/07/26 06:28:03;;;;;;;;;;;22.20;45.80;;;;;;1580358;73;592;-57
2023/07/26 06:30:05;;;;;;;;;;;22.20;45.80;;;;;;1569419;73;1958;-58
2023/07/26 06:32:07;;;;;;;;;;;22.20;45.90;;;;;;1567770;73;754;-58
2023/07/26 06:34:09;;;;;;;;;;;22.20;46.00;;;;;;1571087;73;745;-59
2023/07/26 06:36:11;;;;;;;;;;;22.20;45.90;;;;;;1577740;73;723;-58
2023/07/26 06:38:13;;;;;;;;;;;22.10;46.00;;;;;;1585321;73;691;-58
2023/07/26 06:40:15;;;;;;;;;;;22.20;46.10;;;;;;1583969;73;1145;-58
2023/07/26 06:42:17;;;;;;;;;;;22.20;46.30;;;;;;1570722;73;713;-58
2023/07/26 06:44:19;;;;;;;;;;;22.10;46.30;;;;;;1582803;73;770;-58
2023/07/26 06:46:21;;;;;;;;;;;22.20;46.30;;;;;;1572749;73;777;-58
2023/07/26 06:48:23;;;;;;;;;;;22.20;46.30;;;;;;1581656;73;781;-58
2023/07/26 06:50:24;;;;;;;;;;;22.20;46.30;;;;;;1570748;73;1931;-58
2023/07/26 06:52:29;;;;;;;;;;;22.10;46.30;;;;;;1574624;73;748;-58
2023/07/26 06:54:31;;;;;;;;;;;22.20;46.30;;;;;;1564862;73;744;-56
2023/07/26 06:56:33;;;;;;;;;;;22.10;46.20;;;;;;1565130;73;720;-58
2023/07/26 06:58:35;;;;;;;;;;;22.10;46.20;;;;;;1578346;73;745;-57
2023/07/26 07:00:37;;;;;;;;;;;22.20;46.30;;;;;;1584357;73;1065;-58
2023/07/26 07:02:41;;;;;;;;;;;22.10;46.30;;;;;;1579552;73;646;-57
2023/07/26 07:04:43;;;;;;;;;;;22.20;46.40;;;;;;1574924;73;777;-58
2023/07/26 07:06:45;;;;;;;;;;;22.20;46.40;;;;;;1584407;73;766;-58
2023/07/26 07:08:48;;;;;;;;;;;22.30;46.50;;;;;;1575648;73;712;-59
2023/07/26 07:10:50;;;;;;;;;;;22.20;46.20;;;;;;1568758;73;1932;-58
2023/07/26 07:12:52;;;;;;;;;;;22.10;46.20;;;;;;1584739;73;1075;-58
2023/07/26 07:14:54;;;;;;;;;;;22.20;46.20;;;;;;1589531;73;789;-58
2023/07/26 07:16:56;;;;;;;;;;;22.20;46.10;;;;;;1594677;73;844;-57
2023/07/26 07:18:58;;;;;;;;;;;22.20;46.00;;;;;;1588264;73;1196;-58
2023/07/26 07:21:04;;;;;;;;;;;22.20;45.90;;;;;;1585754;73;1293;-58
2023/07/26 07:23:04;;;;;;;;;;;22.20;45.70;;;;;;1594435;73;1632;-57
2023/07/26 07:25:07;;;;;;;;;;;22.20;45.60;;;;;;1597560;73;1050;-57
2023/07/26 07:27:09;;;;;;;;;;;22.20;45.60;;;;;;1584972;73;791;-56
2023/07/26 07:29:11;;;;;;;;;;;22.30;45.70;;;;;;1605317;73;1134;-58
2023/07/26 07:31:13;;;;;;;;;;;22.30;45.70;;;;;;1584708;73;1930;-57
2023/07/26 07:33:15;;;;;;;;;;;22.30;45.60;;;;;;1578194;73;711;-57
2023/07/26 07:35:17;;;;;;;;;;;22.30;45.60;;;;;;1586598;73;648;-58
2023/07/26 07:37:20;;;;;;;;;;;22.30;45.60;;;;;;1594057;73;724;-57
2023/07/26 07:39:22;;;;;;;;;;;22.30;45.50;;;;;;1599571;73;1173;-58
2023/07/26 07:41:24;;;;;;;;;;;22.20;45.30;;;;;;1592108;73;646;-57
2023/07/26 07:43:25;;;;;;;;;;;22.30;45.40;;;;;;1603554;73;765;-56
2023/07/26 07:45:27;;;;;;;;;;;22.30;45.30;;;;;;1590353;73;721;-58
2023/07/26 07:47:29;;;;;;;;;;;22.20;45.10;;;;;;1597308;73;719;-59
2023/07/26 07:49:31;;;;;;;;;;;22.30;45.20;;;;;;1584571;73;1179;-58
2023/07/26 07:51:33;;;;;;;;;;;22.30;45.50;;;;;;1581507;73;1933;-58
2023/07/26 07:53:35;;;;;;;;;;;22.20;45.10;;;;;;1604443;73;713;-58
2023/07/26 07:55:40;;;;;;;;;;;22.20;45.10;;;;;;1597350;73;771;-58
2023/07/26 07:57:42;;;;;;;;;;;22.30;45.30;;;;;;1583957;73;780;-58
2023/07/26 07:59:44;;;;;;;;;;;22.20;45.20;;;;;;1587933;73;1146;-57
2023/07/26 08:01:46;;;;;;;;;;;22.20;45.30;;;;;;1585700;73;685;-59
2023/07/26 08:03:47;;;;;;;;;;;22.20;45.50;;;;;;1602411;73;756;-58
2023/07/26 08:05:50;;;;;;;;;;;22.20;45.40;;;;;;1582029;73;758;-58
2023/07/26 08:07:53;;;;;;;;;;;22.30;45.70;;;;;;1609013;73;800;-60
2023/07/26 08:09:55;;;;;;;;;;;22.30;45.80;;;;;;1604318;73;1094;-59
2023/07/26 08:11:58;;;;;;;;;;;22.20;45.70;;;;;;1589177;73;1933;-59
2023/07/26 08:14:00;;;;;;;;;;;22.20;45.80;;;;;;1597074;73;1079;-58
2023/07/26 08:16:02;;;;;;;;;;;22.20;45.80;;;;;;1565122;73;774;-59
2023/07/26 08:18:05;;;;;;;;;;;22.20;46.00;;;;;;1583682;73;1666;-58
2023/07/26 08:20:07;;;;;;;;;;;22.20;46.00;;;;;;1584687;73;1202;-58
2023/07/26 08:22:09;;;;;;;;;;;22.20;46.00;;;;;;1573216;73;667;-59
2023/07/26 08:24:11;;;;;;;;;;;22.30;46.20;;;;;;1584818;73;742;-59
2023/07/26 08:26:13;;;;;;;;;;;22.30;46.30;;;;;;1574762;73;701;-58
2023/07/26 08:28:15;;;;;;;;;;;22.30;46.30;;;;;;1570617;73;695;-59
2023/07/26 08:30:17;;;;;;;;;;;22.30;46.40;;;;;;1568726;73;1154;-59
2023/07/26 08:32:22;;;;;;;;;;;22.30;46.30;;;;;;1576105;73;710;-59
2023/07/26 08:34:24;;;;;;;;;;;22.30;46.30;;;;;;1570135;73;786;-57
2023/07/26 08:36:25;;;;;;;;;;;22.30;46.50;;;;;;1578739;73;945;-59
2023/07/26 08:38:27;;;;;;;;;;;22.30;46.50;;;;;;1579342;73;871;-58
2023/07/26 08:40:29;;;;;;;;;;;22.30;46.50;;;;;;1579248;73;1205;-57
2023/07/26 08:42:31;;;;;;;;;;;22.30;46.60;;;;;;1572453;73;763;-58
2023/07/26 08:44:33;;;;;;;;;;;22.30;46.60;;;;;;1577622;73;775;-58
2023/07/26 08:46:36;;;;;;;;;;;22.30;46.70;;;;;;1571740;73;843;-58
2023/07/26 08:48:38;;;;;;;;;;;22.30;47.00;;;;;;1571806;73;729;-58
2023/07/26 08:50:40;;;;;;;;;;;22.30;46.90;;;;;;1574929;73;1950;-58
2023/07/26 08:52:42;;;;;;;;;;;22.30;46.70;;;;;;1571591;73;767;-58
2023/07/26 08:54:44;;;;;;;;;;;22.30;46.50;;;;;;1581164;73;738;-59
2023/07/26 08:56:48;;;;;;;;;;;22.30;46.80;;;;;;1570366;73;931;-59
2023/07/26 08:58:49;;;;;;;;;;;22.30;47.10;;;;;;1568952;73;1165;-58
2023/07/26 09:00:51;;;;;;;;;;;22.30;47.30;;;;;;1568248;73;742;-59
2023/07/26 09:02:55;;;;;;;;;;;22.30;47.10;;;;;;1566249;73;739;-58
2023/07/26 09:04:57;;;;;;;;;;;22.30;47.50;;;;;;1571101;73;701;-58
2023/07/26 09:07:02;;;;;;;;;;;22.30;47.70;;;;;;1571016;73;759;-57
2023/07/26 09:09:04;;;;;;;;;;;22.30;47.70;;;;;;1588219;73;1159;-58
2023/07/26 09:11:25;;;;;;;;;;;22.40;47.80;;;;;;1579615;73;1917;-58
2023/07/26 09:13:27;;;;;;;;;;;22.40;47.70;;;;;;1569339;73;1518;-57
2023/07/26 09:15:30;;;;;;;;;;;22.30;47.20;;;;;;1576442;73;877;-58
2023/07/26 09:17:39;;;;;;;;;;;22.40;47.30;;;;;;1594517;74;1611;-57
2023/07/26 09:19:41;;;;;;;;;;;22.40;47.20;;;;;;1581721;74;1163;-57
2023/07/26 09:21:43;;;;;;;;;;;22.30;46.50;;;;;;1583699;74;788;-59
2023/07/26 09:23:45;;;;;;;;;;;22.40;45.80;;;;;;1583923;73;726;-58
2023/07/26 09:25:47;;;;;;;;;;;22.30;45.60;;;;;;1580902;73;737;-59
2023/07/26 09:27:52;;;;;;;;;;;22.30;46.80;;;;;;1582244;74;756;-59
2023/07/26 09:29:55;;;;;;;;;;;22.40;47.00;;;;;;1578573;73;1120;-59
2023/07/26 09:31:57;;;;;;;;;;;22.40;47.30;;;;;;1576612;74;1910;-58
2023/07/26 09:34:09;;;;;;;;;;;22.40;47.50;;;;;;1586220;74;800;-59
2023/07/26 09:36:11;;;;;;;;;;;22.40;47.30;;;;;;1591273;74;794;-58
2023/07/26 09:38:14;;;;;;;;;;;22.40;47.00;;;;;;1578459;74;742;-59
2023/07/26 09:40:16;;;;;;;;;;;22.40;46.70;;;;;;1591526;73;1130;-59
2023/07/26 09:42:18;;;;;;;;;;;22.40;46.10;;;;;;1591456;74;766;-59
2023/07/26 09:44:20;;;;;;;;;;;22.40;46.30;;;;;;1586483;73;737;-57
2023/07/26 09:46:22;;;;;;;;;;;22.40;46.50;;;;;;1588564;73;809;-58
2023/07/26 09:48:24;;;;;;;;;;;22.40;46.80;;;;;;1584887;73;656;-58
2023/07/26 09:50:26;;;;;;;;;;;22.40;46.80;;;;;;1592527;73;1265;-58
2023/07/26 09:52:28;;;;;;;;;;;22.40;46.10;;;;;;1594821;74;1933;-59
2023/07/26 09:54:30;;;;;;;;;;;22.40;45.60;;;;;;1581284;74;743;-59
2023/07/26 09:56:36;;;;;;;;;;;22.40;45.40;;;;;;1589000;73;811;-58
2023/07/26 09:58:37;;;;;;;;;;;22.40;45.80;;;;;;1581118;73;735;-59
2023/07/26 10:29:31;;;;;;;;;;;22.20;45.40;;;;;;1605407;72;1179;-57
2023/07/26 10:31:32;;;;;;;;;;;22.30;45.00;;;;;;1583191;74;731;-59
2023/07/26 10:33:36;;;;;;;;;;;22.30;45.10;;;;;;1591468;71;2093;-52
2023/07/26 10:35:38;;;;;;;;;;;22.30;44.60;;;;;;1591655;73;1857;-60
2023/07/26 10:37:40;;;;;;;;;;;22.30;44.80;;;;;;1567069;74;1934;-59
2023/07/26 10:39:42;;;;;;;;;;;22.30;45.00;;;;;;1597732;73;1206;-59
2023/07/26 10:41:50;;;;;;;;;;;22.40;45.10;;;;;;1607433;73;866;-57
2023/07/26 10:44:08;;;;;;;;;;;22.40;45.60;;;;;;1592254;73;670;-57
2023/07/26 10:46:11;;;;;;;;;;;22.40;46.00;;;;;;1601201;73;754;-59
2023/07/26 10:48:29;;;;;;;;;;;22.40;45.50;;;;;;1599856;73;1087;-58
2023/07/26 10:50:31;;;;;;;;;;;22.40;45.40;;;;;;1596314;73;1131;-54
2023/07/26 10:52:36;;;;;;;;;;;22.40;45.40;;;;;;1603686;73;666;-58
2023/07/26 10:54:42;;;;;;;;;;;22.50;45.30;;;;;;1601510;73;1550;-54
2023/07/26 10:56:44;;;;;;;;;;;22.40;44.50;;;;;;1602233;73;705;-56
2023/07/26 10:58:46;;;;;;;;;;;22.40;44.40;;;;;;1584829;73;1963;-56
2023/07/26 11:00:48;;;;;;;;;;;22.40;44.80;;;;;;1601596;73;767;-53
2023/07/26 11:02:51;;;;;;;;;;;22.30;45.30;;;;;;1601021;73;740;-54
2023/07/26 11:04:53;;;;;;;;;;;22.30;45.20;;;;;;1603530;73;669;-56
2023/07/26 11:06:58;;;;;;;;;;;22.30;45.00;;;;;;1576594;74;973;-56
2023/07/26 11:09:00;;;;;;;;;;;22.30;44.80;;;;;;1537875;76;1144;-57
2023/07/26 11:11:02;;;;;;;;;;;22.20;45.10;;;;;;1551209;76;682;-55
2023/07/26 11:13:07;;;;;;;;;;;22.20;45.40;;;;;;1545924;75;765;-54
2023/07/26 11:15:09;;;;;;;;;;;22.20;45.50;;;;;;1553331;75;778;-56
2023/07/26 11:17:12;;;;;;;;;;;22.20;45.40;;;;;;1545507;75;756;-58
2023/07/26 11:19:14;;;;;;;;;;;22.10;45.40;;;;;;1551550;75;1909;-55
2023/07/26 11:21:16;;;;;;;;;;;22.20;45.30;;;;;;1555008;75;753;-56
2023/07/26 11:23:21;;;;;;;;;;;22.10;45.40;;;;;;1556306;75;754;-57
2023/07/26 11:25:23;;;;;;;;;;;22.10;45.50;;;;;;1552609;76;805;-53
2023/07/26 11:27:25;;;;;;;;;;;22.10;45.50;;;;;;1553605;75;814;-57
2023/07/26 11:29:27;;;;;;;;;;;22.00;45.50;;;;;;1537772;75;1122;-56
2023/07/26 11:31:29;;;;;;;;;;;22.00;45.70;;;;;;1550521;75;693;-57
2023/07/26 11:33:34;;;;;;;;;;;22.00;45.90;;;;;;1547887;75;720;-54
2023/07/26 11:35:44;;;;;;;;;;;22.10;46.00;;;;;;1553828;74;733;-57
2023/07/26 11:37:54;;;;;;;;;;;22.00;45.70;;;;;;1557125;74;1914;-54
2023/07/26 11:39:57;;;;;;;;;;;22.00;45.70;;;;;;1558607;74;1015;-56
2023/07/26 11:41:59;;;;;;;;;;;22.00;45.50;;;;;;1547603;74;1751;-57
2023/07/26 11:44:01;;;;;;;;;;;22.00;45.20;;;;;;1548591;74;746;-58
2023/07/26 11:46:03;;;;;;;;;;;22.00;45.00;;;;;;1557802;74;859;-54
2023/07/26 11:48:14;;;;;;;;;;;22.00;45.00;;;;;;1565332;74;1135;-55
2023/07/26 11:50:11;;;;;;;;;;;22.00;45.00;;;;;;1559179;76;1476;-57
2023/07/26 11:52:16;;;;;;;;;;;21.90;45.20;;;;;;1559955;74;810;-58
2023/07/26 11:54:18;;;;;;;;;;;22.00;45.00;;;;;;1559881;74;643;-59
2023/07/26 11:56:22;;;;;;;;;;;22.00;45.30;;;;;;1558494;74;732;-57
2023/07/26 11:58:23;;;;;;;;;;;22.00;45.30;;;;;;1559001;74;1958;-58
2023/07/26 12:00:26;;;;;;;;;;;21.90;45.40;;;;;;1564932;74;712;-56
2023/07/26 12:02:29;;;;;;;;;;;22.00;45.60;;;;;;1564544;74;917;-56
2023/07/26 12:04:31;;;;;;;;;;;21.90;45.70;;;;;;1562450;74;630;-59
2023/07/26 12:06:33;;;;;;;;;;;22.00;45.90;;;;;;1562866;74;750;-58
2023/07/26 12:08:35;;;;;;;;;;;21.90;46.00;;;;;;1564399;74;1132;-58
2023/07/26 12:10:38;;;;;;;;;;;21.90;46.10;;;;;;1569373;74;732;-58
2023/07/26 12:12:40;;;;;;;;;;;22.00;46.20;;;;;;1558116;76;689;-55
2023/07/26 12:14:43;;;;;;;;;;;22.00;46.20;;;;;;1562153;74;674;-55
2023/07/26 12:16:51;;;;;;;;;;;22.00;46.20;;;;;;1566553;74;750;-57
2023/07/26 12:18:53;;;;;;;;;;;22.00;46.30;;;;;;1563701;74;1924;-55
2023/07/26 12:21:00;;;;;;;;;;;22.00;46.30;;;;;;1525774;76;841;-58
2023/07/26 12:23:02;;;;;;;;;;;22.00;46.30;;;;;;1560232;76;690;-55
2023/07/26 12:25:04;;;;;;;;;;;21.90;46.30;;;;;;1560711;74;662;-59
2023/07/26 12:27:06;;;;;;;;;;;22.00;46.00;;;;;;1563997;76;711;-57
2023/07/26 12:29:08;;;;;;;;;;;21.90;45.90;;;;;;1563205;74;1163;-57
2023/07/26 12:31:12;;;;;;;;;;;21.90;46.00;;;;;;1557767;74;647;-56
2023/07/26 12:33:14;;;;;;;;;;;21.90;46.10;;;;;;1554480;74;1726;-56
2023/07/26 12:35:20;;;;;;;;;;;21.90;46.90;;;;;;1560903;74;768;-58
2023/07/26 12:37:23;;;;;;;;;;;21.90;46.50;;;;;;1553742;74;1340;-58
2023/07/26 12:39:25;;;;;;;;;;;21.90;46.70;;;;;;1559988;74;1938;-56